Observation data for Plainview on 03/12/2018      Previous  Date  Next       Current Mesonet Observations  Soil Data  Daily Summary Page  Observations in Plain Language
KPVS 120500Z 05006KT 05/M12 A3034 RMK A01 T00501118  RH  029%=      5-min Rain = 0
KPVS 120505Z 05006KT 05/M12 A3034 RMK A01 T00501115  RH  029%=      5-min Rain = 0
KPVS 120510Z 05006KT 05/M11 A3034 RMK A01 T00501109  RH  031%=      5-min Rain = 0
KPVS 120515Z 05007KT 05/M11 A3034 RMK A01 T00501106  RH  032%=      5-min Rain = 0
KPVS 120520Z 06007KT 05/M10 A3034 RMK A01 T00501104  RH  032%=      5-min Rain = 0
KPVS 120525Z 06007KT 05/M11 A3034 RMK A01 T00481106  RH  032%=      5-min Rain = 0
KPVS 120530Z 06006KT 05/M11 A3034 RMK A01 T00451105  RH  033%=      5-min Rain = 0
KPVS 120535Z 06005KT 04/M11 A3034 RMK A01 T00421105  RH  034%=      5-min Rain = 0
KPVS 120540Z 06005KT 04/M11 A3034 RMK A01 T00391105  RH  035%=      5-min Rain = 0
KPVS 120545Z 06005KT 04/M10 A3035 RMK A01 T00381103  RH  035%=      5-min Rain = 0
KPVS 120550Z 06005KT 04/M10 A3035 RMK A01 T00381101  RH  036%=      5-min Rain = 0
KPVS 120555Z 06005KT 04/M10 A3035 RMK A01 T00381095  RH  037%=      5-min Rain = 0
KPVS 120600Z 06004KT 04/M09 A3035 RMK A01 T00391093  RH  038%=      5-min Rain = 0
KPVS 120605Z 06004KT 04/M09 A3035 RMK A01 T00381091  RH  039%=      5-min Rain = 0
KPVS 120610Z 06005KT 04/M09 A3035 RMK A01 T00381087  RH  040%=      5-min Rain = 0
KPVS 120615Z 05004KT 04/M09 A3035 RMK A01 T00391085  RH  040%=      5-min Rain = 0
KPVS 120620Z 05003KT 04/M09 A3035 RMK A01 T00381086  RH  040%=      5-min Rain = 0
KPVS 120625Z 04003KT 04/M09 A3035 RMK A01 T00381088  RH  040%=      5-min Rain = 0
KPVS 120630Z 04003KT 04/M09 A3035 RMK A01 T00381088  RH  040%=      5-min Rain = 0
KPVS 120635Z 05003KT 04/M09 A3035 RMK A01 T00391086  RH  040%=      5-min Rain = 0
KPVS 120640Z 04003KT 04/M09 A3035 RMK A01 T00391086  RH  040%=      5-min Rain = 0
KPVS 120645Z 03003KT 04/M08 A3036 RMK A01 T00381084  RH  041%=      5-min Rain = 0
KPVS 120650Z 05002KT 04/M08 A3036 RMK A01 T00371083  RH  041%=      5-min Rain = 0
KPVS 120655Z 17001KT 04/M08 A3036 RMK A01 T00351084  RH  042%=      5-min Rain = 0
KPVS 120700Z 19000KT 03/M09 A3035 RMK A01 T00311086  RH  042%=      5-min Rain = 0
KPVS 120705Z 05001KT 03/M09 A3036 RMK A01 T00301086  RH  043%=      5-min Rain = 0
KPVS 120710Z 04003KT 03/M08 A3035 RMK A01 T00311084  RH  043%=      5-min Rain = 0
KPVS 120715Z 05004KT 03/M08 A3035 RMK A01 T00341078  RH  044%=      5-min Rain = 0
KPVS 120720Z 05003KT 04/M08 A3035 RMK A01 T00361076  RH  044%=      5-min Rain = 0
KPVS 120725Z 07002KT 04/M08 A3035 RMK A01 T00371077  RH  044%=      5-min Rain = 0
KPVS 120730Z 06002KT 04/M08 A3035 RMK A01 T00371078  RH  043%=      5-min Rain = 0
KPVS 120735Z 05003KT 04/M08 A3035 RMK A01 T00371078  RH  043%=      5-min Rain = 0
KPVS 120740Z 05004KT 04/M08 A3035 RMK A01 T00381075  RH  044%=      5-min Rain = 0
KPVS 120745Z 05005KT 04/M07 A3035 RMK A01 T00381072  RH  045%=      5-min Rain = 0
KPVS 120750Z 05004KT 04/M07 A3035 RMK A01 T00391072  RH  045%=      5-min Rain = 0
KPVS 120755Z 04003KT 04/M07 A3035 RMK A01 T00391071  RH  045%=      5-min Rain = 0
KPVS 120800Z 04002KT 04/M07 A3035 RMK A01 T00401071  RH  045%=      5-min Rain = 0
KPVS 120805Z 05003KT 04/M07 A3035 RMK A01 T00401070  RH  045%=      5-min Rain = 0
KPVS 120810Z 06004KT 04/M07 A3035 RMK A01 T00391070  RH  045%=      5-min Rain = 0
KPVS 120815Z 06005KT 04/M07 A3035 RMK A01 T00361071  RH  046%=      5-min Rain = 0
KPVS 120820Z 05004KT 03/M07 A3035 RMK A01 T00341073  RH  046%=      5-min Rain = 0
KPVS 120825Z 05003KT 03/M07 A3035 RMK A01 T00341073  RH  046%=      5-min Rain = 0
KPVS 120830Z 04002KT 03/M07 A3035 RMK A01 T00331073  RH  046%=      5-min Rain = 0
KPVS 120835Z 03003KT 03/M07 A3035 RMK A01 T00321073  RH  047%=      5-min Rain = 0
KPVS 120840Z 02003KT 03/M07 A3035 RMK A01 T00301072  RH  047%=      5-min Rain = 0
KPVS 120845Z 01003KT 03/M07 A3035 RMK A01 T00281072  RH  048%=      5-min Rain = 0
KPVS 120850Z 34003KT 02/M07 A3035 RMK A01 T00231074  RH  049%=      5-min Rain = 0
KPVS 120855Z 33002KT 02/M08 A3035 RMK A01 T00201075  RH  050%=      5-min Rain = 0
KPVS 120900Z 32003KT 02/M08 A3035 RMK A01 T00161077  RH  051%=      5-min Rain = 0
KPVS 120905Z 32003KT 01/M08 A3034 RMK A01 T00131077  RH  052%=      5-min Rain = 0
KPVS 120910Z 32002KT 01/M08 A3034 RMK A01 T00131077  RH  052%=      5-min Rain = 0
KPVS 120915Z 31003KT 01/M08 A3034 RMK A01 T00121077  RH  052%=      5-min Rain = 0
KPVS 120920Z 31003KT 01/M08 A3034 RMK A01 T00111078  RH  052%=      5-min Rain = 0
KPVS 120925Z 31002KT 01/M08 A3034 RMK A01 T00111080  RH  051%=      5-min Rain = 0
KPVS 120930Z 27002KT 01/M08 A3034 RMK A01 T00111078  RH  052%=      5-min Rain = 0
KPVS 120935Z 24002KT 01/M08 A3034 RMK A01 T00131076  RH  052%=      5-min Rain = 0
KPVS 120940Z 26002KT 01/M08 A3034 RMK A01 T00081077  RH  053%=      5-min Rain = 0
KPVS 120945Z 27001KT 01/M08 A3034 RMK A01 T00061077  RH  054%=      5-min Rain = 0
KPVS 120950Z 29002KT 01/M08 A3034 RMK A01 T00051078  RH  054%=      5-min Rain = 0
KPVS 120955Z 29002KT 00/M08 A3034 RMK A01 T00041077  RH  055%=      5-min Rain = 0
KPVS 121000Z 31002KT 00/M08 A3034 RMK A01 T00021078  RH  056%=      5-min Rain = 0
KPVS 121005Z 33002KT 00/M08 A3034 RMK A01 T00011078  RH  056%=      5-min Rain = 0
KPVS 121010Z 33001KT 00/M08 A3034 RMK A01 T00011077  RH  056%=      5-min Rain = 0
KPVS 121015Z 33000KT 00/M08 A3034 RMK A01 T00031075  RH  057%=      5-min Rain = 0
KPVS 121020Z 33000KT 01/M07 A3034 RMK A01 T00071073  RH  056%=      5-min Rain = 0
KPVS 121025Z 33001KT 01/M07 A3034 RMK A01 T00091074  RH  055%=      5-min Rain = 0
KPVS 121030Z 34001KT 01/M07 A3034 RMK A01 T00111074  RH  054%=      5-min Rain = 0
KPVS 121035Z 04001KT 01/M07 A3034 RMK A01 T00121074  RH  053%=      5-min Rain = 0
KPVS 121040Z 05001KT 01/M07 A3034 RMK A01 T00131074  RH  053%=      5-min Rain = 0
KPVS 121045Z 01002KT 01/M07 A3034 RMK A01 T00131073  RH  053%=      5-min Rain = 0
KPVS 121050Z 01002KT 01/M07 A3034 RMK A01 T00131072  RH  054%=      5-min Rain = 0
KPVS 121055Z 01002KT 01/M07 A3034 RMK A01 T00121071  RH  054%=      5-min Rain = 0
KPVS 121100Z 33003KT 01/M07 A3035 RMK A01 T00121071  RH  055%=      5-min Rain = 0
KPVS 121105Z 31003KT 01/M07 A3035 RMK A01 T00111070  RH  055%=      5-min Rain = 0
KPVS 121110Z 32003KT 01/M07 A3035 RMK A01 T00101072  RH  055%=      5-min Rain = 0
KPVS 121115Z 33004KT 01/M07 A3035 RMK A01 T00121071  RH  054%=      5-min Rain = 0
KPVS 121120Z 33004KT 01/M07 A3035 RMK A01 T00111073  RH  054%=      5-min Rain = 0
KPVS 121125Z 34004KT 01/M07 A3035 RMK A01 T00081074  RH  055%=      5-min Rain = 0
KPVS 121130Z 34002KT 01/M07 A3035 RMK A01 T00071074  RH  055%=      5-min Rain = 0
KPVS 121135Z 01002KT 01/M07 A3035 RMK A01 T00071073  RH  056%=      5-min Rain = 0
KPVS 121140Z 00001KT 01/M07 A3035 RMK A01 T00081073  RH  055%=      5-min Rain = 0
KPVS 121145Z 00001KT 01/M07 A3035 RMK A01 T00081074  RH  055%=      5-min Rain = 0
KPVS 121150Z 00001KT 01/M08 A3035 RMK A01 T00061076  RH  055%=      5-min Rain = 0
KPVS 121155Z 06001KT 00/M07 A3035 RMK A01 T00041074  RH  056%=      5-min Rain = 0
KPVS 121200Z 04002KT 00/M07 A3035 RMK A01 T00041073  RH  057%=      5-min Rain = 0
KPVS 121205Z 04002KT 00/M07 A3035 RMK A01 T00031073  RH  058%=      5-min Rain = 0
KPVS 121210Z 05001KT 00/M07 A3034 RMK A01 T00011073  RH  058%=      5-min Rain = 0
KPVS 121215Z 05000KT 00/M07 A3035 RMK A01 T00011073  RH  058%=      5-min Rain = 0
KPVS 121220Z 00000KT 00/M07 A3035 RMK A01 T00021073  RH  058%=      5-min Rain = 0
KPVS 121225Z 05000KT 00/M08 A3035 RMK A01 T00011075  RH  057%=      5-min Rain = 0
KPVS 121230Z 04001KT M00/M07 A3035 RMK A01 T10011074  RH  059%=      5-min Rain = 0
KPVS 121235Z 03001KT M00/M07 A3035 RMK A01 T10021074  RH  059%=      5-min Rain = 0
KPVS 121240Z 03000KT M01/M08 A3035 RMK A01 T10061076  RH  060%=      5-min Rain = 0
KPVS 121245Z 03000KT M01/M08 A3035 RMK A01 T10081075  RH  061%=      5-min Rain = 0
KPVS 121250Z 34000KT M01/M08 A3036 RMK A01 T10091075  RH  062%=      5-min Rain = 0
KPVS 121255Z 34001KT M01/M07 A3036 RMK A01 T10101074  RH  063%=      5-min Rain = 0
KPVS 121300Z 34001KT M01/M07 A3036 RMK A01 T10091072  RH  063%=      5-min Rain = 0
KPVS 121305Z 32000KT M01/M07 A3036 RMK A01 T10071072  RH  062%=      5-min Rain = 0
KPVS 121310Z 28001KT M00/M07 A3036 RMK A01 T10041071  RH  061%=      5-min Rain = 0
KPVS 121315Z 27001KT M00/M07 A3036 RMK A01 T10021069  RH  061%=      5-min Rain = 0
KPVS 121320Z 28001KT M00/M07 A3036 RMK A01 T10021067  RH  062%=      5-min Rain = 0
KPVS 121325Z 27001KT M00/M07 A3037 RMK A01 T10041067  RH  063%=      5-min Rain = 0
KPVS 121330Z 23001KT M00/M06 A3037 RMK A01 T10011061  RH  064%=      5-min Rain = 0
KPVS 121335Z 25001KT 01/M06 A3037 RMK A01 T00051058  RH  063%=      5-min Rain = 0
KPVS 121340Z 27001KT 01/M06 A3037 RMK A01 T00101057  RH  062%=      5-min Rain = 0
KPVS 121345Z 28000KT 01/M05 A3037 RMK A01 T00141054  RH  061%=      5-min Rain = 0
KPVS 121350Z 00000KT 02/M05 A3037 RMK A01 T00201053  RH  059%=      5-min Rain = 0
KPVS 121355Z 30000KT 02/M05 A3037 RMK A01 T00241054  RH  057%=      5-min Rain = 0
KPVS 121400Z 27000KT 03/M05 A3037 RMK A01 T00261053  RH  057%=      5-min Rain = 0
KPVS 121405Z 27001KT 03/M05 A3037 RMK A01 T00301051  RH  056%=      5-min Rain = 0
KPVS 121410Z 35000KT 04/M05 A3037 RMK A01 T00361046  RH  056%=      5-min Rain = 0
KPVS 121415Z 17001KT 05/M05 A3038 RMK A01 T00451045  RH  053%=      5-min Rain = 0
KPVS 121420Z 22001KT 04/M05 A3038 RMK A01 T00441048  RH  052%=      5-min Rain = 0
KPVS 121425Z 19002KT 04/M05 A3038 RMK A01 T00431045  RH  053%=      5-min Rain = 0
KPVS 121430Z 16001KT 04/M04 A3038 RMK A01 T00441043  RH  054%=      5-min Rain = 0
KPVS 121435Z 14002KT 05/M04 A3038 RMK A01 T00451043  RH  053%=      5-min Rain = 0
KPVS 121440Z 21002KT 04/M04 A3038 RMK A01 T00441043  RH  054%=      5-min Rain = 0
KPVS 121445Z 19003KT 04/M04 A3038 RMK A01 T00441041  RH  055%=      5-min Rain = 0
KPVS 121450Z 20004KT 04/M04 A3038 RMK A01 T00431041  RH  055%=      5-min Rain = 0
KPVS 121455Z 20004KT 04/M04 A3039 RMK A01 T00421042  RH  055%=      5-min Rain = 0
KPVS 121500Z 21003KT 04/M04 A3039 RMK A01 T00431042  RH  055%=      5-min Rain = 0
KPVS 121505Z 21004KT 04/M04 A3039 RMK A01 T00441040  RH  055%=      5-min Rain = 0
KPVS 121510Z 20003KT 05/M04 A3039 RMK A01 T00451039  RH  055%=      5-min Rain = 0
KPVS 121515Z 19004KT 05/M04 A3039 RMK A01 T00461039  RH  054%=      5-min Rain = 0
KPVS 121520Z 18004KT 05/M04 A3039 RMK A01 T00481038  RH  054%=      5-min Rain = 0
KPVS 121525Z 19004KT 05/M04 A3038 RMK A01 T00481039  RH  054%=      5-min Rain = 0
KPVS 121530Z 21004KT 05/M04 A3039 RMK A01 T00491039  RH  054%=      5-min Rain = 0
KPVS 121535Z 22004KT 05/M04 A3039 RMK A01 T00491039  RH  053%=      5-min Rain = 0
KPVS 121540Z 21005KT 05/M04 A3039 RMK A01 T00501040  RH  053%=      5-min Rain = 0
KPVS 121545Z 23004KT 05/M04 A3039 RMK A01 T00501040  RH  053%=      5-min Rain = 0
KPVS 121550Z 22005KT 05/M04 A3039 RMK A01 T00511040  RH  052%=      5-min Rain = 0
KPVS 121555Z 22004KT 05/M04 A3039 RMK A01 T00511041  RH  052%=      5-min Rain = 0
KPVS 121600Z 22005KT 05/M04 A304 RMK A01 T00531040  RH  051%=      5-min Rain = 0
KPVS 121605Z 23004KT 06/M04 A304 RMK A01 T00551040  RH  051%=      5-min Rain = 0
KPVS 121610Z 21005KT 06/M04 A304 RMK A01 T00571040  RH  050%=      5-min Rain = 0
KPVS 121615Z 22005KT 06/M04 A304 RMK A01 T00621037  RH  049%=      5-min Rain = 0
KPVS 121620Z 24005KT 07/M04 A304 RMK A01 T00671037  RH  048%=      5-min Rain = 0
KPVS 121625Z 21003KT 07/M04 A3039 RMK A01 T00671038  RH  047%=      5-min Rain = 0
KPVS 121630Z 19004KT 07/M04 A3039 RMK A01 T00701037  RH  047%=      5-min Rain = 0
KPVS 121635Z 17004KT 08/M04 A3039 RMK A01 T00781036  RH  045%=      5-min Rain = 0
KPVS 121640Z 21002KT 08/M04 A3038 RMK A01 T00791037  RH  044%=      5-min Rain = 0
KPVS 121645Z 15003KT 08/M04 A3038 RMK A01 T00831037  RH  043%=      5-min Rain = 0
KPVS 121650Z 22004KT 08/M04 A3038 RMK A01 T00841037  RH  043%=      5-min Rain = 0
KPVS 121655Z 22003KT 08/M04 A3038 RMK A01 T00841037  RH  043%=      5-min Rain = 0
KPVS 121700Z 19004KT 09/M04 A3038 RMK A01 T00861038  RH  042%=      5-min Rain = 0
KPVS 121705Z 19002KT 09/M04 A3037 RMK A01 T00881038  RH  041%=      5-min Rain = 0
KPVS 121710Z 10002KT 09/M04 A3037 RMK A01 T00931039  RH  040%=      5-min Rain = 0
KPVS 121715Z 05001KT 09/M04 A3037 RMK A01 T00941037  RH  040%=      5-min Rain = 0
KPVS 121720Z 14004KT 10/M04 A3036 RMK A01 T00981039  RH  038%=      5-min Rain = 0
KPVS 121725Z 16004KT 10/M04 A3036 RMK A01 T00961041  RH  038%=      5-min Rain = 0
KPVS 121730Z 17002KT 10/M04 A3036 RMK A01 T00971044  RH  037%=      5-min Rain = 0
KPVS 121735Z 18002KT 10/M05 A3036 RMK A01 T01001047  RH  036%=      5-min Rain = 0
KPVS 121740Z 25002KT 10/M05 A3036 RMK A01 T00971051  RH  035%=      5-min Rain = 0
KPVS 121745Z 13003KT 10/M05 A3036 RMK A01 T00991047  RH  036%=      5-min Rain = 0
KPVS 121750Z 13005KT 10/M05 A3035 RMK A01 T01031049  RH  034%=      5-min Rain = 0
KPVS 121755Z 15005KT 11/M05 A3035 RMK A01 T01061045  RH  035%=      5-min Rain = 0
KPVS 121800Z 16004G9KT 11/M04 A3035 RMK A01 T01071044  RH  035%=      5-min Rain = 0
KPVS 121805Z 16006KT 11/M05 A3035 RMK A01 T01081047  RH  034%=      5-min Rain = 0
KPVS 121810Z 19003KT 11/M05 A3035 RMK A01 T01061050  RH  033%=      5-min Rain = 0
KPVS 121815Z 19003KT 11/M05 A3035 RMK A01 T01071050  RH  033%=      5-min Rain = 0
KPVS 121820Z 17004KT 11/M05 A3034 RMK A01 T01111050  RH  032%=      5-min Rain = 0
KPVS 121825Z 17004KT 11/M05 A3034 RMK A01 T01121051  RH  032%=      5-min Rain = 0
KPVS 121830Z 20004KT 11/M05 A3034 RMK A01 T01081050  RH  033%=      5-min Rain = 0
KPVS 121835Z 21005KT 11/M05 A3033 RMK A01 T01071051  RH  033%=      5-min Rain = 0
KPVS 121840Z 23003KT 11/M05 A3033 RMK A01 T01061054  RH  032%=      5-min Rain = 0
KPVS 121845Z 18003KT 11/M06 A3033 RMK A01 T01111055  RH  031%=      5-min Rain = 0
KPVS 121850Z 20003KT 11/M06 A3033 RMK A01 T01111059  RH  030%=      5-min Rain = 0
KPVS 121855Z 30001KT 11/M06 A3032 RMK A01 T01121058  RH  030%=      5-min Rain = 0
KPVS 121900Z 29002KT 11/M06 A3032 RMK A01 T01111056  RH  031%=      5-min Rain = 0
KPVS 121905Z 26002KT 12/M05 A3032 RMK A01 T01151054  RH  031%=      5-min Rain = 0
KPVS 121910Z 19004KT 12/M05 A3031 RMK A01 T01221048  RH  030%=      5-min Rain = 0
KPVS 121915Z 22005KT 12/M05 A3031 RMK A01 T01231052  RH  029%=      5-min Rain = 0
KPVS 121920Z 25004KT 12/M05 A3031 RMK A01 T01181053  RH  030%=      5-min Rain = 0
KPVS 121925Z 24003KT 12/M06 A303 RMK A01 T01181055  RH  030%=      5-min Rain = 0
KPVS 121930Z 28002KT 12/M06 A303 RMK A01 T01191056  RH  029%=      5-min Rain = 0
KPVS 121935Z 04004KT 12/M05 A303 RMK A01 T01211053  RH  029%=      5-min Rain = 0
KPVS 121940Z 04003KT 13/M05 A303 RMK A01 T01271053  RH  028%=      5-min Rain = 0
KPVS 121945Z 16003G8KT 13/M06 A303 RMK A01 T01291055  RH  028%=      5-min Rain = 0
KPVS 121950Z 21004KT 13/M06 A3029 RMK A01 T01281061  RH  027%=      5-min Rain = 0
KPVS 121955Z 17004KT 12/M06 A3029 RMK A01 T01241062  RH  027%=      5-min Rain = 0
KPVS 122000Z 12003KT 13/M06 A3029 RMK A01 T01261062  RH  027%=      5-min Rain = 0
KPVS 122005Z 05003KT 13/M06 A3029 RMK A01 T01271063  RH  026%=      5-min Rain = 0
KPVS 122010Z 34003KT 13/M07 A3028 RMK A01 T01261067  RH  026%=      5-min Rain = 0
KPVS 122015Z 35004KT 13/M07 A3028 RMK A01 T01291066  RH  025%=      5-min Rain = 0
KPVS 122020Z 21004KT 13/M07 A3028 RMK A01 T01331066  RH  025%=      5-min Rain = 0
KPVS 122025Z 17004KT 13/M07 A3027 RMK A01 T01301067  RH  025%=      5-min Rain = 0
KPVS 122030Z 20003KT 13/M07 A3027 RMK A01 T01291068  RH  025%=      5-min Rain = 0
KPVS 122035Z 26002KT 13/M07 A3027 RMK A01 T01301067  RH  025%=      5-min Rain = 0
KPVS 122040Z 30002G8KT 14/M06 A3026 RMK A01 T01371063  RH  025%=      5-min Rain = 0
KPVS 122045Z 33002KT 14/M06 A3026 RMK A01 T01411064  RH  024%=      5-min Rain = 0
KPVS 122050Z 18004KT 14/M06 A3026 RMK A01 T01421064  RH  024%=      5-min Rain = 0
KPVS 122055Z 19004KT 14/M06 A3026 RMK A01 T01371064  RH  025%=      5-min Rain = 0
KPVS 122100Z 17003KT 14/M06 A3025 RMK A01 T01361064  RH  025%=      5-min Rain = 0
KPVS 122105Z 17002KT 14/M07 A3025 RMK A01 T01371066  RH  024%=      5-min Rain = 0
KPVS 122110Z 07002KT 14/M06 A3025 RMK A01 T01371064  RH  025%=      5-min Rain = 0
KPVS 122115Z 08005KT 14/M07 A3025 RMK A01 T01351066  RH  024%=      5-min Rain = 0
KPVS 122120Z 06006KT 14/M06 A3024 RMK A01 T01371064  RH  024%=      5-min Rain = 0
KPVS 122125Z 14005KT 14/M06 A3024 RMK A01 T01391060  RH  025%=      5-min Rain = 0
KPVS 122130Z 16004KT 14/M06 A3023 RMK A01 T01411060  RH  025%=      5-min Rain = 0
KPVS 122135Z 18006KT 14/M06 A3023 RMK A01 T01401059  RH  025%=      5-min Rain = 0
KPVS 122140Z 15005G10KT 14/M06 A3023 RMK A01 T01401057  RH  025%=      5-min Rain = 0
KPVS 122145Z 14003KT 14/M06 A3023 RMK A01 T01421058  RH  025%=      5-min Rain = 0
KPVS 122150Z 16003G8KT 14/M06 A3022 RMK A01 T01411057  RH  025%=      5-min Rain = 0
KPVS 122155Z 10005KT 14/M06 A3022 RMK A01 T01441057  RH  025%=      5-min Rain = 0
KPVS 122200Z 12005KT 14/M06 A3022 RMK A01 T01431057  RH  025%=      5-min Rain = 0
KPVS 122205Z 21002KT 14/M06 A3021 RMK A01 T01421060  RH  025%=      5-min Rain = 0
KPVS 122210Z 20004G12KT 15/M06 A3021 RMK A01 T01461059  RH  024%=      5-min Rain = 0
KPVS 122215Z 23007KT 14/M06 A3021 RMK A01 T01421063  RH  024%=      5-min Rain = 0
KPVS 122220Z 22005KT 14/M06 A3021 RMK A01 T01421061  RH  024%=      5-min Rain = 0
KPVS 122225Z 17006KT 15/M06 A302 RMK A01 T01461062  RH  023%=      5-min Rain = 0
KPVS 122230Z 14006G12KT 14/M07 A302 RMK A01 T01431065  RH  023%=      5-min Rain = 0
KPVS 122235Z 19004KT 14/M06 A302 RMK A01 T01421064  RH  024%=      5-min Rain = 0
KPVS 122240Z 18005G11KT 15/M06 A302 RMK A01 T01461062  RH  023%=      5-min Rain = 0
KPVS 122245Z 13006KT 14/M06 A302 RMK A01 T01431064  RH  024%=      5-min Rain = 0
KPVS 122250Z 13004G9KT 14/M07 A302 RMK A01 T01411065  RH  024%=      5-min Rain = 0
KPVS 122255Z 18007KT 14/M07 A3019 RMK A01 T01421069  RH  023%=      5-min Rain = 0
KPVS 122300Z 18006KT 14/M07 A3019 RMK A01 T01431071  RH  022%=      5-min Rain = 0
KPVS 122305Z 17004KT 14/M07 A3019 RMK A01 T01401071  RH  023%=      5-min Rain = 0
KPVS 122310Z 16006KT 14/M07 A3019 RMK A01 T01421072  RH  022%=      5-min Rain = 0
KPVS 122315Z 17006G11KT 14/M07 A3019 RMK A01 T01401073  RH  022%=      5-min Rain = 0
KPVS 122320Z 18004KT 14/M08 A3019 RMK A01 T01371075  RH  022%=      5-min Rain = 0
KPVS 122325Z 20006KT 14/M08 A3019 RMK A01 T01371077  RH  022%=      5-min Rain = 0
KPVS 122330Z 20005KT 14/M08 A3019 RMK A01 T01361078  RH  022%=      5-min Rain = 0
KPVS 122335Z 18006G11KT 14/M07 A3019 RMK A01 T01351073  RH  023%=      5-min Rain = 0
KPVS 122340Z 16006KT 14/M07 A3019 RMK A01 T01351069  RH  024%=      5-min Rain = 0
KPVS 122345Z 15007KT 14/M07 A3019 RMK A01 T01361070  RH  024%=      5-min Rain = 0
KPVS 122350Z 14006KT 14/M07 A3019 RMK A01 T01351071  RH  024%=      5-min Rain = 0
KPVS 122355Z 18006KT 14/M07 A3019 RMK A01 T01351073  RH  023%=      5-min Rain = 0
KPVS 130000Z 18006KT 14/M08 A3019 RMK A01 T01351075  RH  023%=      5-min Rain = 0
KPVS 130005Z 18006KT 13/M07 A3019 RMK A01 T01341071  RH  024%=      5-min Rain = 0
KPVS 130010Z 15003KT 14/M07 A3019 RMK A01 T01351071  RH  024%=      5-min Rain = 0
KPVS 130015Z 17006KT 14/M07 A3019 RMK A01 T01351072  RH  023%=      5-min Rain = 0
KPVS 130020Z 17005KT 13/M07 A3019 RMK A01 T01341074  RH  023%=      5-min Rain = 0
KPVS 130025Z 16006KT 13/M07 A3019 RMK A01 T01331071  RH  024%=      5-min Rain = 0
KPVS 130030Z 17005KT 13/M07 A3019 RMK A01 T01321070  RH  024%=      5-min Rain = 0
KPVS 130035Z 17007KT 13/M07 A3019 RMK A01 T01291071  RH  024%=      5-min Rain = 0
KPVS 130040Z 17006KT 13/M07 A302 RMK A01 T01281071  RH  025%=      5-min Rain = 0
KPVS 130045Z 16006KT 13/M07 A302 RMK A01 T01251071  RH  025%=      5-min Rain = 0
KPVS 130050Z 17005KT 12/M07 A302 RMK A01 T01221071  RH  026%=      5-min Rain = 0
KPVS 130055Z 17006KT 12/M07 A302 RMK A01 T01181070  RH  027%=      5-min Rain = 0
KPVS 130100Z 16004KT 12/M07 A302 RMK A01 T01171068  RH  027%=      5-min Rain = 0
KPVS 130105Z 17005KT 12/M07 A302 RMK A01 T01161070  RH  027%=      5-min Rain = 0
KPVS 130110Z 17005KT 11/M07 A302 RMK A01 T01121072  RH  027%=      5-min Rain = 0
KPVS 130115Z 16004KT 11/M07 A302 RMK A01 T01091072  RH  028%=      5-min Rain = 0
KPVS 130120Z 15004KT 11/M07 A302 RMK A01 T01071073  RH  028%=      5-min Rain = 0
KPVS 130125Z 15004KT 11/M07 A3021 RMK A01 T01061073  RH  028%=      5-min Rain = 0
KPVS 130130Z 15004KT 11/M07 A3021 RMK A01 T01051072  RH  028%=      5-min Rain = 0
KPVS 130135Z 16005KT 10/M07 A3021 RMK A01 T01031070  RH  029%=      5-min Rain = 0
KPVS 130140Z 16004KT 10/M07 A3021 RMK A01 T01011069  RH  030%=      5-min Rain = 0
KPVS 130145Z 16004KT 10/M07 A3021 RMK A01 T00991070  RH  030%=      5-min Rain = 0
KPVS 130150Z 16005KT 10/M07 A3021 RMK A01 T00961071  RH  030%=      5-min Rain = 0
KPVS 130155Z 16005KT 09/M07 A3021 RMK A01 T00941072  RH  030%=      5-min Rain = 0
KPVS 130200Z 17005KT 09/M07 A3021 RMK A01 T00931074  RH  031%=      5-min Rain = 0
KPVS 130205Z 16005KT 09/M08 A3021 RMK A01 T00911075  RH  031%=      5-min Rain = 0
KPVS 130210Z 16006KT 09/M08 A3021 RMK A01 T00891077  RH  031%=      5-min Rain = 0
KPVS 130215Z 16006KT 09/M08 A3021 RMK A01 T00871077  RH  031%=      5-min Rain = 0
KPVS 130220Z 16006KT 09/M08 A3021 RMK A01 T00851078  RH  031%=      5-min Rain = 0
KPVS 130225Z 16006KT 08/M08 A3021 RMK A01 T00841079  RH  031%=      5-min Rain = 0
KPVS 130230Z 16006KT 08/M08 A3021 RMK A01 T00841079  RH  031%=      5-min Rain = 0
KPVS 130235Z 16007KT 08/M08 A3021 RMK A01 T00831079  RH  031%=      5-min Rain = 0
KPVS 130240Z 16007KT 08/M08 A3021 RMK A01 T00831078  RH  032%=      5-min Rain = 0
KPVS 130245Z 16007KT 08/M08 A3021 RMK A01 T00821078  RH  032%=      5-min Rain = 0
KPVS 130250Z 16008KT 08/M08 A3021 RMK A01 T00821078  RH  032%=      5-min Rain = 0
KPVS 130255Z 17009KT 08/M08 A3021 RMK A01 T00811079  RH  032%=      5-min Rain = 0
KPVS 130300Z 17008KT 08/M08 A3022 RMK A01 T00791079  RH  032%=      5-min Rain = 0
KPVS 130305Z 16009KT 08/M08 A3022 RMK A01 T00791079  RH  032%=      5-min Rain = 0
KPVS 130310Z 17009KT 08/M08 A3022 RMK A01 T00771078  RH  033%=      5-min Rain = 0
KPVS 130315Z 17008KT 08/M08 A3022 RMK A01 T00751077  RH  034%=      5-min Rain = 0
KPVS 130320Z 16009KT 07/M08 A3022 RMK A01 T00731075  RH  034%=      5-min Rain = 0
KPVS 130325Z 17008KT 07/M07 A3022 RMK A01 T00721074  RH  035%=      5-min Rain = 0
KPVS 130330Z 16009KT 07/M07 A3022 RMK A01 T00711073  RH  036%=      5-min Rain = 0
KPVS 130335Z 16009KT 07/M07 A3022 RMK A01 T00721073  RH  035%=      5-min Rain = 0
KPVS 130340Z 16009KT 07/M07 A3022 RMK A01 T00711072  RH  036%=      5-min Rain = 0
KPVS 130345Z 16009KT 07/M07 A3022 RMK A01 T00701072  RH  036%=      5-min Rain = 0
KPVS 130350Z 16009KT 07/M07 A3022 RMK A01 T00681071  RH  037%=      5-min Rain = 0
KPVS 130355Z 16009KT 07/M07 A3022 RMK A01 T00671070  RH  037%=      5-min Rain = 0
KPVS 130400Z 17008KT 07/M07 A3022 RMK A01 T00661070  RH  038%=      5-min Rain = 0
KPVS 130405Z 17008KT 07/M07 A3022 RMK A01 T00661070  RH  038%=      5-min Rain = 0
KPVS 130410Z 16009KT 07/M07 A3022 RMK A01 T00651070  RH  038%=      5-min Rain = 0
KPVS 130415Z 16009KT 06/M07 A3022 RMK A01 T00641070  RH  038%=      5-min Rain = 0
KPVS 130420Z 16009KT 06/M07 A3022 RMK A01 T00641071  RH  038%=      5-min Rain = 0
KPVS 130425Z 17008KT 06/M07 A3022 RMK A01 T00621072  RH  038%=      5-min Rain = 0
KPVS 130430Z 17008KT 06/M07 A3022 RMK A01 T00601072  RH  039%=      5-min Rain = 0
KPVS 130435Z 17009KT 06/M07 A3022 RMK A01 T00601072  RH  039%=      5-min Rain = 0
KPVS 130440Z 17009KT 06/M07 A3022 RMK A01 T00601073  RH  038%=      5-min Rain = 0
KPVS 130445Z 17008KT 06/M07 A3022 RMK A01 T00591074  RH  038%=      5-min Rain = 0
KPVS 130450Z 17008KT 06/M07 A3022 RMK A01 T00591074  RH  038%=      5-min Rain = 0
KPVS 130455Z 17008KT 06/M07 A3022 RMK A01 T00581074  RH  039%=      5-min Rain = 0

Page generated in 0.0337 seconds.